Terminal Aerodrome Forecast
Issued by NWS

Home | Current Version | Previous Version | Text Only | Print | Product List | Glossary On
Versions: 1 2 3 4 5 6 7 8 9 10 11 12 13 14 15 16 17 18 19 20 21 22 23 24 25
000
FTUS43 KABR 301100
TAFPIR
TAF
KPIR 301129Z 3012/0112 12008KT P6SM SKC WS015/20035KT
     FM301400 16014G23KT P6SM SKC
     FM302200 32014G23KT P6SM FEW080 BKN120
     FM010100 35011KT P6SM VCSH FEW060 BKN080 OVC100=

USA.gov is the U.S. government's official web portal to all federal, state and local government web resources and services.